createdAt,value
2022-12-08T00:01:19.060Z,3.13
2022-12-08T00:03:46.427Z,3.14
2022-12-08T00:06:42.660Z,3.11
2022-12-08T00:09:13.746Z,3.05
2022-12-08T00:11:40.690Z,3.09
2022-12-08T00:14:07.459Z,3.08
2022-12-08T00:16:34.235Z,3.09
2022-12-08T00:19:01.039Z,3.08
2022-12-08T00:21:28.385Z,3.12
2022-12-08T00:23:55.640Z,3.11
2022-12-08T00:26:22.671Z,3.10
2022-12-08T00:28:49.470Z,3.12
2022-12-08T00:31:16.262Z,3.15
2022-12-08T00:33:43.098Z,3.14
2022-12-08T00:36:11.291Z,3.11
2022-12-08T00:38:38.321Z,3.14
2022-12-08T00:41:11.715Z,3.17
2022-12-08T00:43:38.521Z,3.14
2022-12-08T00:46:05.447Z,3.17
2022-12-08T00:48:32.294Z,3.19
2022-12-08T00:50:59.075Z,3.20
2022-12-08T00:53:25.860Z,3.17
2022-12-08T00:55:52.767Z,3.13
2022-12-08T00:58:19.824Z,3.17
2022-12-08T01:00:46.660Z,3.12
2022-12-08T01:03:13.660Z,3.10
2022-12-08T01:05:40.513Z,3.11
2022-12-08T01:08:08.656Z,2.97
2022-12-08T01:10:38.370Z,3.03
2022-12-08T01:13:05.194Z,2.98
2022-12-08T01:15:31.972Z,2.99
2022-12-08T01:17:58.737Z,3.04
2022-12-08T01:20:25.549Z,2.98
2022-12-08T01:22:52.331Z,2.99
2022-12-08T01:25:19.124Z,2.98
2022-12-08T01:27:45.957Z,2.94
2022-12-08T01:30:12.998Z,2.91
2022-12-08T01:32:39.794Z,2.92
2022-12-08T01:35:06.709Z,2.98
2022-12-08T01:37:33.477Z,2.97
2022-12-08T01:40:00.280Z,2.95
2022-12-08T01:42:27.034Z,2.97
2022-12-08T01:44:58.721Z,2.89
2022-12-08T01:47:27.627Z,2.94
2022-12-08T01:49:54.579Z,2.87
2022-12-08T01:52:32.833Z,2.89
2022-12-08T01:55:06.706Z,2.86
2022-12-08T01:57:42.915Z,2.89
2022-12-08T02:00:11.879Z,2.82
2022-12-08T02:02:46.237Z,2.84
2022-12-08T02:05:13.778Z,2.83
2022-12-08T02:07:40.813Z,2.89
2022-12-08T02:10:08.018Z,2.80
2022-12-08T02:12:34.845Z,2.78
2022-12-08T02:15:05.126Z,2.75
2022-12-08T02:17:42.964Z,2.72
2022-12-08T02:20:18.907Z,2.78
2022-12-08T02:22:54.535Z,2.78
2022-12-08T02:25:28.262Z,2.76
2022-12-08T02:28:03.978Z,2.85
2022-12-08T02:30:30.805Z,2.86
2022-12-08T02:33:00.343Z,2.82
2022-12-08T02:35:39.535Z,2.84
2022-12-08T02:38:13.939Z,2.86
2022-12-08T02:40:49.667Z,2.87
2022-12-08T02:43:19.546Z,2.88
2022-12-08T02:45:52.293Z,2.91
2022-12-08T02:48:19.150Z,2.93
2022-12-08T02:50:45.955Z,2.95
2022-12-08T02:56:03.062Z,2.97
2022-12-08T02:58:29.801Z,2.97
2022-12-08T03:01:05.597Z,2.99
2022-12-08T03:03:50.923Z,2.96
2022-12-08T03:06:29.622Z,2.94
2022-12-08T03:09:07.608Z,2.94
2022-12-08T03:11:38.133Z,2.97
2022-12-08T03:14:07.091Z,3.03
2022-12-08T03:16:36.602Z,2.99
2022-12-08T03:19:09.168Z,2.98
2022-12-08T03:21:37.264Z,2.96
2022-12-08T03:24:07.144Z,2.97
2022-12-08T03:26:49.657Z,3.01
2022-12-08T03:29:16.522Z,3.01
2022-12-08T03:31:50.646Z,3.03
2022-12-08T03:34:18.275Z,2.98
2022-12-08T03:36:45.165Z,2.96
2022-12-08T03:39:11.998Z,2.98
2022-12-08T03:41:38.800Z,3.00
2022-12-08T03:44:05.615Z,2.98
2022-12-08T03:46:32.415Z,2.99
2022-12-08T03:48:59.162Z,3.04
2022-12-08T03:51:26.341Z,3.01
2022-12-08T03:53:53.577Z,2.96
2022-12-08T03:56:28.187Z,2.97
2022-12-08T03:58:55.314Z,2.94
2022-12-08T04:01:22.554Z,2.93
2022-12-08T04:03:49.427Z,2.95
2022-12-08T04:06:16.724Z,2.86
2022-12-08T04:08:43.558Z,2.89
2022-12-08T04:11:10.380Z,2.91
2022-12-08T04:13:37.767Z,2.89
2022-12-08T04:16:05.286Z,2.93
2022-12-08T04:18:32.619Z,2.90
2022-12-08T04:21:00.813Z,2.91
2022-12-08T04:23:27.668Z,2.94
2022-12-08T04:25:54.476Z,2.96
2022-12-08T04:28:21.274Z,2.94
2022-12-08T04:30:48.423Z,2.93
2022-12-08T04:33:15.313Z,2.97
2022-12-08T04:35:42.079Z,2.94
2022-12-08T04:38:08.983Z,2.97
2022-12-08T04:40:35.750Z,2.94
2022-12-08T04:43:02.530Z,2.92
2022-12-08T04:45:29.331Z,2.89
2022-12-08T04:47:56.103Z,2.92
2022-12-08T04:50:22.909Z,2.96
2022-12-08T04:52:49.695Z,2.90
2022-12-08T04:55:16.565Z,2.89
2022-12-08T04:57:43.375Z,2.91
2022-12-08T05:00:10.370Z,2.94
2022-12-08T05:02:37.252Z,2.90
2022-12-08T05:05:04.506Z,2.88
2022-12-08T05:07:31.344Z,2.85
2022-12-08T05:09:58.488Z,2.87
2022-12-08T05:12:25.301Z,2.82
2022-12-08T05:14:52.123Z,2.86
2022-12-08T05:17:18.942Z,2.83
2022-12-08T05:19:45.714Z,2.76
2022-12-08T05:22:12.485Z,2.82
2022-12-08T05:24:43.976Z,2.81
2022-12-08T05:27:13.926Z,2.76
2022-12-08T05:29:40.661Z,2.83
2022-12-08T05:32:07.522Z,2.88
2022-12-08T05:34:34.410Z,2.88
2022-12-08T05:37:01.224Z,2.91
2022-12-08T05:39:28.118Z,2.91
2022-12-08T05:41:54.993Z,2.78
2022-12-08T05:44:21.771Z,2.79
2022-12-08T05:46:48.586Z,2.78
2022-12-08T05:49:15.412Z,2.84
2022-12-08T05:51:42.227Z,2.83
2022-12-08T05:54:09.252Z,2.82
2022-12-08T05:56:36.303Z,2.82
2022-12-08T05:59:05.192Z,2.89
2022-12-08T06:01:32.149Z,2.90
2022-12-08T06:04:00.208Z,2.94
2022-12-08T06:06:27.489Z,2.96
2022-12-08T06:08:54.275Z,2.95
2022-12-08T06:11:22.437Z,2.96
2022-12-08T06:13:49.704Z,2.95
2022-12-08T06:16:16.990Z,2.96
2022-12-08T06:18:44.062Z,2.93
2022-12-08T06:21:12.236Z,2.94
2022-12-08T06:23:39.266Z,2.95
2022-12-08T06:26:15.929Z,2.95
2022-12-08T06:28:43.398Z,2.95
2022-12-08T06:31:11.708Z,2.98
2022-12-08T06:33:38.493Z,2.97
2022-12-08T06:36:06.049Z,2.98
2022-12-08T06:38:33.230Z,2.98
2022-12-08T06:41:00.021Z,2.92
2022-12-08T06:43:26.838Z,2.95
2022-12-08T06:45:53.704Z,2.96
2022-12-08T06:48:20.663Z,2.93
2022-12-08T06:50:47.445Z,2.95
2022-12-08T06:53:15.399Z,2.86
2022-12-08T06:55:59.307Z,2.91
2022-12-08T06:58:26.601Z,2.91
2022-12-08T07:00:53.420Z,2.92
2022-12-08T07:03:20.304Z,2.94
2022-12-08T07:05:47.090Z,2.92
2022-12-08T07:08:13.978Z,2.90
2022-12-08T07:10:40.877Z,2.88
2022-12-08T07:13:07.651Z,2.90
2022-12-08T07:15:34.509Z,2.95
2022-12-08T07:18:01.295Z,2.90
2022-12-08T07:20:28.131Z,2.89
2022-12-08T07:22:55.045Z,2.92
2022-12-08T07:25:22.098Z,2.86
2022-12-08T07:27:48.910Z,2.92
2022-12-08T07:30:15.855Z,2.92
2022-12-08T07:32:42.824Z,2.92
2022-12-08T07:35:10.060Z,2.95
2022-12-08T07:37:36.932Z,2.83
2022-12-08T07:40:05.035Z,2.89
2022-12-08T07:42:32.254Z,2.92
2022-12-08T07:44:59.391Z,2.85
2022-12-08T07:47:26.368Z,2.86
2022-12-08T07:49:53.153Z,2.92
2022-12-08T07:52:20.103Z,2.78
2022-12-08T07:54:47.482Z,2.90
2022-12-08T07:57:15.158Z,2.93
2022-12-08T07:59:41.941Z,2.95
2022-12-08T08:02:27.181Z,2.99
2022-12-08T08:04:54.589Z,2.93
2022-12-08T08:07:21.749Z,2.93
2022-12-08T08:09:48.940Z,2.98
2022-12-08T08:12:31.332Z,2.96
2022-12-08T08:14:59.380Z,3.04
2022-12-08T08:17:26.241Z,3.04
2022-12-08T08:19:53.109Z,3.04
2022-12-08T08:22:19.861Z,3.06
2022-12-08T08:24:46.821Z,3.05
2022-12-08T08:27:14.163Z,3.12
2022-12-08T08:29:41.626Z,3.16
2022-12-08T08:32:08.946Z,3.15
2022-12-08T08:34:35.904Z,3.17
2022-12-08T08:37:02.813Z,3.15
2022-12-08T08:39:29.903Z,3.12
2022-12-08T08:41:57.554Z,3.09
2022-12-08T08:44:24.482Z,3.08
2022-12-08T08:46:51.721Z,3.05
2022-12-08T08:49:18.521Z,2.99
2022-12-08T08:51:45.433Z,3.06
2022-12-08T08:54:12.217Z,3.10
2022-12-08T08:56:39.005Z,3.08
2022-12-08T08:59:05.899Z,3.14
2022-12-08T09:01:33.622Z,3.14
2022-12-08T09:04:00.563Z,3.17
2022-12-08T09:06:27.804Z,3.14
2022-12-08T09:08:54.771Z,3.14
2022-12-08T09:11:22.654Z,3.23
2022-12-08T09:13:52.173Z,3.28
2022-12-08T09:16:19.294Z,3.26
2022-12-08T09:18:46.550Z,3.20
2022-12-08T09:21:14.790Z,3.19
2022-12-08T09:23:41.932Z,3.29
2022-12-08T09:26:08.827Z,3.17
2022-12-08T09:28:35.656Z,3.22
2022-12-08T09:31:02.647Z,3.22
2022-12-08T09:33:30.608Z,3.14
2022-12-08T09:36:01.344Z,3.12
2022-12-08T09:38:28.138Z,3.22
2022-12-08T09:40:55.088Z,3.24
2022-12-08T09:43:38.564Z,3.18
2022-12-08T09:46:07.856Z,3.13
2022-12-08T09:48:40.497Z,3.23
2022-12-08T09:51:08.582Z,3.30
2022-12-08T09:53:38.318Z,3.27
2022-12-08T09:56:11.088Z,3.23
2022-12-08T09:58:43.977Z,3.24
2022-12-08T10:01:11.395Z,3.35
2022-12-08T10:03:38.164Z,3.42
2022-12-08T10:06:23.730Z,3.52
2022-12-08T10:09:11.187Z,3.52
2022-12-08T10:11:42.401Z,3.63
2022-12-08T10:14:28.775Z,3.63
2022-12-08T10:41:24.412Z,3.53
2022-12-08T10:43:59.635Z,3.62
2022-12-08T10:46:28.514Z,3.62
2022-12-08T10:49:10.621Z,3.80
2022-12-08T10:51:42.155Z,3.81
2022-12-08T10:54:29.177Z,3.78
2022-12-08T10:56:57.247Z,3.77
2022-12-08T10:59:25.164Z,3.81
2022-12-08T11:01:54.680Z,3.86
2022-12-08T11:04:26.699Z,3.93
2022-12-08T11:06:53.717Z,3.96
2022-12-08T11:09:20.705Z,4.00
2022-12-08T11:11:57.756Z,3.95
2022-12-08T11:14:26.164Z,4.08
2022-12-08T11:16:56.841Z,4.14
2022-12-08T11:19:26.645Z,4.23
2022-12-08T11:21:54.275Z,4.33
2022-12-08T11:24:24.257Z,4.32
2022-12-08T11:27:00.215Z,4.35
2022-12-08T11:29:29.189Z,4.42
2022-12-08T11:32:11.772Z,4.46
2022-12-08T11:34:43.948Z,4.51
2022-12-08T11:37:37.377Z,4.54
2022-12-08T11:40:16.234Z,4.62
2022-12-08T11:43:03.694Z,4.67
2022-12-08T11:45:34.711Z,4.68
2022-12-08T11:48:16.322Z,4.78
2022-12-08T11:50:50.515Z,4.77
2022-12-08T11:53:33.877Z,4.84
2022-12-08T11:56:10.084Z,4.84
2022-12-08T11:58:55.880Z,4.89
2022-12-08T12:01:25.079Z,4.92
2022-12-08T12:04:03.220Z,4.72
2022-12-08T12:07:00.419Z,4.76
2022-12-08T12:10:11.460Z,4.84
2022-12-08T12:13:16.983Z,4.75
2022-12-08T12:16:05.307Z,4.61
2022-12-08T12:18:41.216Z,4.71
2022-12-08T12:21:15.221Z,4.80
2022-12-08T12:23:47.091Z,4.78
2022-12-08T12:26:22.329Z,4.90
2022-12-08T12:28:54.504Z,4.90
2022-12-08T12:31:28.894Z,4.92
2022-12-08T12:34:06.847Z,5.01
2022-12-08T12:36:47.927Z,5.08
2022-12-08T12:39:17.755Z,5.12
2022-12-08T12:41:59.709Z,5.14
2022-12-08T12:44:29.508Z,5.19
2022-12-08T12:47:01.463Z,5.13
2022-12-08T12:49:40.684Z,4.99
2022-12-08T12:52:16.860Z,4.92
2022-12-08T12:55:04.683Z,4.80
2022-12-08T12:57:39.644Z,4.80
2022-12-08T13:00:09.314Z,4.61
2022-12-08T13:02:36.532Z,4.68
2022-12-08T13:05:03.500Z,4.68
2022-12-08T13:07:35.700Z,4.54
2022-12-08T13:10:16.558Z,4.55
2022-12-08T13:12:46.042Z,4.55
2022-12-08T13:15:19.678Z,4.59
2022-12-08T13:17:48.988Z,4.62
2022-12-08T13:20:22.976Z,4.59
2022-12-08T13:22:50.143Z,4.56
2022-12-08T13:25:38.884Z,4.67
2022-12-08T13:28:15.881Z,4.43
2022-12-08T13:30:45.603Z,4.43
2022-12-08T13:33:38.242Z,4.42
2022-12-08T13:36:32.555Z,4.32
2022-12-08T13:39:01.283Z,4.35
2022-12-08T13:41:38.675Z,4.42
2022-12-08T13:58:41.806Z,4.39
2022-12-08T14:01:41.107Z,4.40
2022-12-08T14:04:42.519Z,4.32
2022-12-08T14:07:02.959Z,4.38
2022-12-08T14:09:36.660Z,4.37
2022-12-08T14:12:09.079Z,4.35
2022-12-08T14:15:01.717Z,4.24
2022-12-08T14:17:27.762Z,4.09
2022-12-08T14:19:57.729Z,4.13
2022-12-08T14:22:25.299Z,4.08
2022-12-08T14:24:54.221Z,4.09
2022-12-08T14:27:26.684Z,4.06
2022-12-08T14:29:59.890Z,4.05
2022-12-08T14:32:32.694Z,4.01
2022-12-08T14:35:08.591Z,3.99
2022-12-08T14:37:42.540Z,3.95
2022-12-08T14:40:22.723Z,3.95
2022-12-08T14:43:12.058Z,3.92
2022-12-08T14:45:39.010Z,3.94
2022-12-08T14:48:22.662Z,3.89
2022-12-08T14:51:05.313Z,3.90
2022-12-08T14:53:39.974Z,3.92
2022-12-08T14:56:33.236Z,3.91
2022-12-08T14:59:14.008Z,3.88
2022-12-08T15:01:43.062Z,3.89
2022-12-08T15:04:13.086Z,3.85
2022-12-08T15:07:01.406Z,3.79
2022-12-08T15:09:41.205Z,3.76
2022-12-08T15:12:14.382Z,3.68
2022-12-08T15:14:53.699Z,3.70
2022-12-08T15:17:35.294Z,3.65
2022-12-08T15:20:03.385Z,3.56
2022-12-08T15:22:30.877Z,3.58
2022-12-08T15:24:58.203Z,3.55
2022-12-08T15:27:25.661Z,3.41
2022-12-08T15:29:52.977Z,3.42
2022-12-08T15:32:22.865Z,3.35
2022-12-08T15:34:50.195Z,3.30
2022-12-08T15:37:25.316Z,3.30
2022-12-08T15:39:52.895Z,3.25
2022-12-08T15:42:19.904Z,3.23
2022-12-08T15:44:46.862Z,3.19
2022-12-08T15:47:19.288Z,3.17
2022-12-08T15:49:47.792Z,3.12
2022-12-08T15:52:18.365Z,3.15
2022-12-08T15:54:45.921Z,3.07
2022-12-08T16:00:51.343Z,2.94
2022-12-08T16:04:27.577Z,2.91
2022-12-08T16:09:25.957Z,2.78
2022-12-08T16:12:10.105Z,2.77
2022-12-08T16:17:26.398Z,2.72
2022-12-08T16:19:53.604Z,2.69
2022-12-08T16:25:20.299Z,2.60
2022-12-08T16:28:44.805Z,2.63
2022-12-08T16:30:40.480Z,2.62
2022-12-08T16:33:07.691Z,2.62
2022-12-08T16:35:34.721Z,2.65
2022-12-08T16:38:01.711Z,2.59
2022-12-08T16:40:28.795Z,2.59
2022-12-08T16:42:55.957Z,2.59
2022-12-08T16:45:30.073Z,2.60
2022-12-08T16:48:01.624Z,2.54
2022-12-08T16:50:31.562Z,2.53
2022-12-08T16:53:00.582Z,2.50
2022-12-08T16:55:28.033Z,2.43
2022-12-08T16:57:55.421Z,2.43
2022-12-08T17:00:27.970Z,2.41
2022-12-08T17:02:55.248Z,2.38
2022-12-08T17:05:24.847Z,2.33
2022-12-08T17:07:53.236Z,2.36
2022-12-08T17:10:23.017Z,2.40
2022-12-08T17:12:50.660Z,2.32
2022-12-08T17:15:21.147Z,2.36
2022-12-08T17:17:48.673Z,2.33
2022-12-08T17:20:18.630Z,2.32
2022-12-08T17:22:46.095Z,2.30
2022-12-08T17:25:13.378Z,2.27
2022-12-08T17:27:41.312Z,2.26
2022-12-08T17:30:10.756Z,2.25
2022-12-08T17:32:38.605Z,2.23
2022-12-08T17:35:06.274Z,2.22
2022-12-08T17:37:33.987Z,2.20
2022-12-08T17:40:01.610Z,2.20
2022-12-08T17:42:28.808Z,2.20
2022-12-08T17:44:55.834Z,2.19
2022-12-08T17:47:22.916Z,2.16
2022-12-08T17:49:50.031Z,2.18
2022-12-08T17:52:17.005Z,2.15
2022-12-08T17:54:44.139Z,2.21
2022-12-08T17:57:11.234Z,2.21
2022-12-08T17:59:38.219Z,2.20
2022-12-08T18:02:06.508Z,2.23
2022-12-08T18:04:33.591Z,2.19
2022-12-08T18:07:00.657Z,2.18
2022-12-08T18:09:29.932Z,2.24
2022-12-08T18:11:56.943Z,2.21
2022-12-08T18:14:23.978Z,2.21
2022-12-08T18:16:51.065Z,2.18
2022-12-08T18:19:18.117Z,2.22
2022-12-08T18:21:45.126Z,2.21
2022-12-08T18:24:17.650Z,2.23
2022-12-08T18:26:45.240Z,2.23
2022-12-08T18:29:12.286Z,2.21
2022-12-08T18:31:39.290Z,2.20
2022-12-08T18:34:06.361Z,2.19
2022-12-08T18:36:34.426Z,2.24
2022-12-08T18:39:05.756Z,2.27
2022-12-08T18:41:35.848Z,2.23
2022-12-08T18:44:02.902Z,2.22
2022-12-08T18:46:30.076Z,2.20
2022-12-08T18:48:57.144Z,2.26
2022-12-08T18:51:24.217Z,2.29
2022-12-08T18:53:51.763Z,2.31
2022-12-08T18:56:21.516Z,2.28
2022-12-08T18:58:48.642Z,2.24
2022-12-08T19:01:15.743Z,2.26
2022-12-08T19:03:52.831Z,2.25
2022-12-08T19:06:30.049Z,2.29
2022-12-08T19:08:57.558Z,2.25
2022-12-08T19:11:27.646Z,2.25
2022-12-08T19:13:55.571Z,2.24
2022-12-08T19:16:23.142Z,2.20
2022-12-08T19:18:50.343Z,2.24
2022-12-08T19:21:17.961Z,2.27
2022-12-08T19:23:45.067Z,2.24
2022-12-08T19:26:12.124Z,2.29
2022-12-08T19:28:39.122Z,2.27
2022-12-08T19:31:07.918Z,2.27
2022-12-08T19:33:35.508Z,2.26
2022-12-08T19:36:12.175Z,2.26
2022-12-08T19:38:40.006Z,2.26
2022-12-08T19:41:08.464Z,2.25
2022-12-08T19:43:35.443Z,2.28
2022-12-08T19:46:02.578Z,2.26
2022-12-08T19:48:29.635Z,2.25
2022-12-08T19:50:57.117Z,2.25
2022-12-08T19:53:24.184Z,2.27
2022-12-08T19:55:51.340Z,2.21
2022-12-08T19:58:18.628Z,2.18
2022-12-08T20:00:48.301Z,2.16
2022-12-08T20:03:17.304Z,2.14
2022-12-08T20:05:45.591Z,2.13
2022-12-08T20:08:12.651Z,2.13
2022-12-08T20:10:43.494Z,2.10
2022-12-08T20:13:11.403Z,2.01
2022-12-08T20:15:38.451Z,1.93
2022-12-08T20:18:05.815Z,1.92
2022-12-08T20:20:32.969Z,1.94
2022-12-08T20:22:59.994Z,1.92
2022-12-08T20:25:27.177Z,1.90
2022-12-08T20:27:54.259Z,1.90
2022-12-08T20:30:21.243Z,1.87
2022-12-08T20:32:48.260Z,1.88
2022-12-08T20:35:16.085Z,1.90
2022-12-08T20:37:43.161Z,1.87
2022-12-08T20:40:13.503Z,1.87
2022-12-08T20:42:40.625Z,1.82
2022-12-08T20:45:08.271Z,1.86
2022-12-08T20:47:36.686Z,1.83
2022-12-08T20:50:05.998Z,1.81
2022-12-08T20:52:33.259Z,1.81
2022-12-08T20:55:00.347Z,1.81
2022-12-08T20:57:27.511Z,1.84
2022-12-08T20:59:54.483Z,1.85
2022-12-08T21:02:21.633Z,1.83
2022-12-08T21:04:48.942Z,1.88
2022-12-08T21:07:16.144Z,1.91
2022-12-08T21:09:44.088Z,1.92
2022-12-08T21:12:11.312Z,1.91
2022-12-08T21:14:38.434Z,1.94
2022-12-08T21:17:05.705Z,1.93
2022-12-08T21:19:32.975Z,1.92
2022-12-08T21:22:00.075Z,1.92
2022-12-08T21:24:33.753Z,1.93
2022-12-08T21:27:01.617Z,1.89
2022-12-08T21:29:28.631Z,1.92
2022-12-08T21:31:58.655Z,1.88
2022-12-08T21:34:26.612Z,1.89
2022-12-08T21:36:53.669Z,1.93
2022-12-08T21:39:20.818Z,1.90
2022-12-08T21:41:47.974Z,1.85
2022-12-08T21:44:16.759Z,1.87
2022-12-08T21:46:44.643Z,1.85
2022-12-08T21:49:11.985Z,1.82
2022-12-08T21:51:39.177Z,1.80
2022-12-08T21:54:06.172Z,1.81
2022-12-08T21:56:33.281Z,1.85
2022-12-08T21:59:00.542Z,1.86
2022-12-08T22:01:27.678Z,1.88
2022-12-08T22:03:54.987Z,1.88
2022-12-08T22:06:22.131Z,1.89
2022-12-08T22:08:49.152Z,1.88
2022-12-08T22:11:16.470Z,1.92
2022-12-08T22:13:43.771Z,1.89
2022-12-08T22:16:12.620Z,1.93
2022-12-08T22:18:40.633Z,1.95
2022-12-08T22:21:16.372Z,1.87
2022-12-08T22:23:44.464Z,1.92
2022-12-08T22:26:11.789Z,1.92
2022-12-08T22:28:41.094Z,1.90
2022-12-08T22:31:19.332Z,1.85
2022-12-08T22:33:47.594Z,1.88
2022-12-08T22:36:21.286Z,1.87
2022-12-08T22:38:48.738Z,1.88
2022-12-08T22:41:16.787Z,1.87
2022-12-08T22:43:44.797Z,1.90
2022-12-08T22:46:18.115Z,1.92
2022-12-08T22:48:45.671Z,1.91
2022-12-08T22:51:13.949Z,1.90
2022-12-08T22:53:41.254Z,1.87
2022-12-08T22:56:11.034Z,1.88
2022-12-08T22:58:39.474Z,1.88
2022-12-08T23:01:08.459Z,1.92
2022-12-08T23:03:35.610Z,1.90
2022-12-08T23:06:11.622Z,1.89
2022-12-08T23:08:38.866Z,1.91
2022-12-08T23:11:06.176Z,1.92
2022-12-08T23:13:33.200Z,1.89
2022-12-08T23:16:00.248Z,1.86
2022-12-08T23:18:27.313Z,1.86
2022-12-08T23:20:54.436Z,1.86
2022-12-08T23:23:21.638Z,1.83
2022-12-08T23:25:48.915Z,1.85
2022-12-08T23:28:16.174Z,1.81
2022-12-08T23:30:43.196Z,1.80
2022-12-08T23:33:10.223Z,1.83
2022-12-08T23:35:37.648Z,1.81
2022-12-08T23:38:04.698Z,1.80
2022-12-08T23:40:31.932Z,1.81
2022-12-08T23:42:59.162Z,1.80
2022-12-08T23:45:26.294Z,1.78
2022-12-08T23:47:53.337Z,1.73
2022-12-08T23:50:20.284Z,1.73
2022-12-08T23:52:47.355Z,1.72
2022-12-08T23:55:14.527Z,1.65
2022-12-08T23:57:41.576Z,1.63
